Time;durP1;ratioP1;P1;durP2;ratioP2;P2;SDS_P1;SDS_P2;PMS_P1;PMS_P2;Temp;Humidity;BMP_temperature;BMP_pressure;BME280_temperature;BME280_humidity;BME280_pressure;Samples;Min_cycle;Max_cycle;Signal;HPM_P1;HPM_P2
2022/08/29 17:16:53;;;;;;;8.20;3.70;;;;;;;20.69;100.00;100563.58;110343;1256;21966;-80
2022/08/29 17:19:23;;;;;;;6.70;3.50;;;;;;;20.78;100.00;100569.70;110309;1260;22398;-80
2022/08/29 17:21:57;;;;;;;8.80;4.10;;;;;;;20.86;100.00;100568.76;110464;1260;21969;-85
2022/08/29 17:24:37;;;;;;;5.40;3.30;;;;;;;20.96;100.00;100567.79;109784;1260;23850;-81
2022/08/29 17:27:20;;;;;;;10.40;7.30;;;;;;;21.06;100.00;100572.67;106219;1256;5212925;-87
2022/08/29 17:30:14;;;;;;;9.20;4.30;;;;;;;21.18;100.00;100572.89;110802;1256;21965;-83
2022/08/29 17:33:31;;;;;;;12.00;6.80;;;;;;;21.25;100.00;100576.73;110460;1256;21967;-80
2022/08/29 17:36:23;;;;;;;13.20;8.00;;;;;;;21.33;100.00;100576.32;110725;1256;22470;-83
2022/08/29 17:39:19;;;;;;;13.40;6.90;;;;;;;21.39;100.00;100572.45;110572;1256;22566;-81
2022/08/29 17:42:10;;;;;;;13.70;6.20;;;;;;;21.43;100.00;100574.05;110375;1256;23023;-80
2022/08/29 17:44:52;;;;;;;14.70;6.50;;;;;;;21.49;100.00;100576.73;110284;1259;22060;-85
2022/08/29 17:47:52;;;;;;;13.30;7.30;;;;;;;21.50;100.00;100574.60;110195;1259;21973;-87
2022/08/29 17:50:38;;;;;;;15.00;6.60;;;;;;;21.53;100.00;100577.35;110451;1259;23346;-85
2022/08/29 17:53:48;;;;;;;12.30;7.10;;;;;;;21.55;100.00;100575.69;110226;1259;21993;-85
2022/08/29 17:56:41;;;;;;;8.00;6.00;;;;;;;21.57;100.00;100577.11;110248;1259;22030;-81
2022/08/29 17:59:27;;;;;;;11.70;5.50;;;;;;;21.56;100.00;100584.40;110241;1259;21970;-81
2022/08/29 18:05:31;;;;;;;12.10;5.70;;;;;;;21.52;100.00;100589.10;110721;1256;22004;-81
2022/08/29 18:08:35;;;;;;;8.10;4.80;;;;;;;21.52;100.00;100591.04;110934;1252;22610;-81
2022/08/29 18:11:48;;;;;;;8.10;3.90;;;;;;;21.47;100.00;100599.16;110873;1256;22771;-82
2022/08/29 18:14:53;;;;;;;9.90;4.00;;;;;;;21.40;100.00;100602.95;110630;1254;21970;-81
2022/08/29 18:17:35;;;;;;;10.50;3.70;;;;;;;21.38;100.00;100605.27;110600;1256;21982;-82
2022/08/29 18:21:34;;;;;;;;;;;;;;;;;;;;;
2022/08/29 18:24:51;;;;;;;9.00;3.90;;;;;;;21.21;100.00;100613.71;110666;1256;22383;-82
2022/08/29 18:28:13;;;;;;;9.40;4.40;;;;;;;21.17;100.00;100614.73;110319;1259;22390;-81
2022/08/29 18:30:54;;;;;;;7.50;4.10;;;;;;;21.15;100.00;100619.20;109543;1267;22382;-81
2022/08/29 18:34:23;;;;;;;6.80;4.20;;;;;;;21.11;100.00;100618.89;109460;1266;23121;-81
2022/08/29 18:38:10;;;;;;;7.80;4.60;;;;;;;21.03;100.00;100624.29;108904;1274;22012;-84
2022/08/29 18:51:14;;;;;;;9.30;4.20;;;;;;;20.71;100.00;100631.81;108639;1279;23032;-80
2022/08/29 18:54:44;;;;;;;8.80;4.50;;;;;;;20.63;100.00;100636.75;107843;1291;22167;-82
2022/08/29 18:57:22;;;;;;;8.00;4.20;;;;;;;20.58;100.00;100638.67;107652;1291;22010;-81
2022/08/29 19:00:16;;;;;;;8.30;5.20;;;;;;;20.56;100.00;100640.00;107610;1291;22946;-81
2022/08/29 19:02:48;;;;;;;9.30;4.60;;;;;;;20.56;100.00;100639.31;107844;1292;22125;-82
2022/08/29 19:05:32;;;;;;;10.00;4.20;;;;;;;20.56;100.00;100639.23;107565;1292;22078;-83
2022/08/29 19:08:00;;;;;;;9.50;6.10;;;;;;;20.51;100.00;100639.79;107624;1292;23119;-81
2022/08/29 19:11:12;;;;;;;;;;;;;;;;;;;;;
2022/08/29 19:14:10;;;;;;;8.90;5.00;;;;;;;20.28;100.00;100639.80;108108;1289;22133;-81
2022/08/29 19:17:36;;;;;;;9.00;4.80;;;;;;;20.23;100.00;100641.09;108081;1290;22071;-82
2022/08/29 19:21:57;;;;;;;;;;;;;;;;;;;;;
2022/08/29 19:25:50;;;;;;;6.30;4.40;;;;;;;20.08;100.00;100643.87;109609;1276;22055;-81
2022/08/29 19:28:33;;;;;;;10.10;4.90;;;;;;;20.06;100.00;100647.02;109326;1273;21994;-83
2022/08/29 19:31:31;;;;;;;;;;;;;;;;;;;;;
2022/08/29 19:34:42;;;;;;;10.60;4.90;;;;;;;20.07;100.00;100653.41;110267;1260;22127;-80
2022/08/29 19:37:34;;;;;;;9.40;5.50;;;;;;;20.05;100.00;100651.77;109591;1267;21987;-81
2022/08/29 19:40:47;;;;;;;9.70;5.40;;;;;;;20.04;100.00;100650.06;109549;1267;22604;-80
2022/08/29 19:43:34;;;;;;;8.40;5.20;;;;;;;19.98;100.00;100648.77;109478;1265;22494;-81
2022/08/29 19:46:26;;;;;;;7.70;4.80;;;;;;;19.93;100.00;100649.43;109285;1265;23730;-82
2022/08/29 19:49:07;;;;;;;7.90;5.40;;;;;;;19.87;100.00;100648.63;110314;1257;23638;-83
2022/08/29 19:51:48;;;;;;;10.40;5.00;;;;;;;19.83;100.00;100652.83;109661;1264;22134;-80
2022/08/29 19:54:21;;;;;;;12.10;6.20;;;;;;;19.80;100.00;100653.45;109768;1264;22754;-80
2022/08/29 19:56:53;;;;;;;9.30;5.60;;;;;;;19.79;100.00;100653.78;110129;1260;21976;-80
2022/08/29 19:59:23;;;;;;;7.80;5.50;;;;;;;19.77;100.00;100655.98;109359;1265;22003;-80
2022/08/29 20:02:03;;;;;;;9.00;5.40;;;;;;;19.75;100.00;100659.83;109547;1266;21972;-84
2022/08/29 20:04:40;;;;;;;9.30;5.70;;;;;;;19.72;100.00;100661.06;109178;1270;22000;-80
2022/08/29 20:07:36;;;;;;;12.00;5.70;;;;;;;19.66;100.00;100659.08;109126;1265;23622;-79
2022/08/29 20:10:28;;;;;;;13.00;6.00;;;;;;;19.57;100.00;100664.52;109300;1264;23091;-79
2022/08/29 20:13:18;;;;;;;11.70;6.10;;;;;;;19.49;100.00;100666.09;109521;1265;21982;-78
2022/08/29 20:16:11;;;;;;;9.60;5.70;;;;;;;19.44;100.00;100668.35;108989;1268;22018;-80
2022/08/29 20:19:02;;;;;;;12.90;6.10;;;;;;;19.37;100.00;100665.61;109511;1265;22068;-80
2022/08/29 20:21:57;;;;;;;9.30;6.70;;;;;;;19.31;100.00;100667.92;109066;1267;21991;-80
2022/08/29 20:25:03;;;;;;;9.50;6.40;;;;;;;19.25;100.00;100672.00;109314;1264;23511;-80
2022/08/29 20:28:15;;;;;;;7.50;6.00;;;;;;;19.19;100.00;100672.17;109901;1259;21981;-80
2022/08/29 20:31:16;;;;;;;9.70;7.00;;;;;;;19.15;100.00;100672.35;110344;1258;21973;-79
2022/08/29 20:33:57;;;;;;;11.00;7.00;;;;;;;19.13;100.00;100673.20;109530;1261;22381;-77
2022/08/29 20:39:31;;;;;;;10.00;7.00;;;;;;;19.05;100.00;100678.58;109662;1262;22129;-78
2022/08/29 20:45:38;;;;;;;10.30;7.50;;;;;;;18.95;100.00;100676.44;109399;1266;21990;-79
2022/08/29 20:48:22;;;;;;;14.00;7.10;;;;;;;18.92;100.00;100680.63;109305;1264;21995;-78
2022/08/29 20:51:23;;;;;;;11.20;8.30;;;;;;;18.87;100.00;100681.44;109350;1262;22090;-79
2022/08/29 20:54:06;;;;;;;11.90;8.30;;;;;;;18.85;100.00;100685.15;109413;1259;24467;-80
2022/08/29 20:56:48;;;;;;;8.90;6.70;;;;;;;18.84;100.00;100685.27;110167;1258;22372;-78
2022/08/29 20:59:24;;;;;;;10.00;8.10;;;;;;;18.80;100.00;100687.44;110143;1256;23579;-79
2022/08/29 21:02:28;;;;;;;;;;;;;;;;;;;;;
2022/08/29 21:05:43;;;;;;;11.70;7.60;;;;;;;18.71;100.00;100690.71;109231;1267;23709;-79
2022/08/29 21:09:08;;;;;;;7.80;7.00;;;;;;;18.65;100.00;100694.96;108948;1268;21993;-80
2022/08/29 21:11:56;;;;;;;11.20;6.70;;;;;;;18.63;100.00;100702.17;109661;1260;24353;-79
2022/08/29 21:15:28;;;;;;;9.70;8.00;;;;;;;18.61;100.00;100702.88;109952;1260;22031;-79
2022/08/29 21:19:35;;;;;;;8.80;7.90;;;;;;;18.56;100.00;100706.69;110621;1263;21985;-79
2022/08/29 21:23:46;;;;;;;;;;;;;;;;;;;;;
2022/08/29 21:27:20;;;;;;;10.10;7.10;;;;;;;18.58;100.00;100709.67;109667;1261;23673;-79
2022/08/29 21:30:50;;;;;;;9.40;6.60;;;;;;;18.61;100.00;100704.27;109355;1265;21994;-78
2022/08/29 21:33:49;;;;;;;9.00;6.50;;;;;;;18.62;100.00;100703.04;108928;1268;23173;-79
2022/08/29 21:36:50;;;;;;;9.00;6.80;;;;;;;18.62;100.00;100708.23;109048;1268;22792;-80
2022/08/29 21:44:03;;;;;;;8.00;6.20;;;;;;;18.59;100.00;100707.99;108717;1275;23058;-80
2022/08/29 21:47:03;;;;;;;8.20;6.60;;;;;;;18.56;100.00;100711.55;108432;1276;22771;-80
2022/08/29 21:49:52;;;;;;;6.80;6.20;;;;;;;18.57;100.00;100716.27;108674;1276;22062;-78
2022/08/29 21:52:43;;;;;;;7.50;6.80;;;;;;;18.56;100.00;100720.31;108690;1276;23715;-80
2022/08/29 21:55:36;;;;;;;9.20;6.60;;;;;;;18.56;100.00;100717.92;108788;1276;22036;-79
2022/08/29 21:59:09;;;;;;;;;;;;;;;;;;;;;
2022/08/29 22:01:48;;;;;;;8.40;7.00;;;;;;;18.54;100.00;100717.02;108729;1276;21992;-80
2022/08/29 22:04:42;;;;;;;7.60;6.20;;;;;;;18.53;100.00;100719.33;108560;1276;23763;-81
2022/08/29 22:07:39;;;;;;;9.50;6.30;;;;;;;18.52;100.00;100716.21;108220;1276;22796;-80
2022/08/29 22:10:31;;;;;;;6.80;6.10;;;;;;;18.53;100.00;100716.91;108964;1270;23008;-79
2022/08/29 22:13:16;;;;;;;8.80;6.50;;;;;;;18.55;100.00;100722.38;108936;1273;23651;-80
2022/08/29 22:19:17;;;;;;;7.30;6.30;;;;;;;18.55;100.00;100722.26;109004;1270;23042;-82
2022/08/29 22:21:50;;;;;;;17.50;6.50;;;;;;;18.56;100.00;100728.63;109193;1269;23710;-80
2022/08/29 22:24:36;;;;;;;7.60;6.70;;;;;;;18.58;100.00;100727.55;109246;1267;22028;-81
2022/08/29 22:27:30;;;;;;;9.40;7.30;;;;;;;18.58;100.00;100727.31;109263;1267;22058;-81
2022/08/29 22:30:20;;;;;;;10.60;7.60;;;;;;;18.58;100.00;100727.30;109223;1267;24217;-81
2022/08/29 22:33:13;;;;;;;8.40;7.40;;;;;;;18.55;100.00;100726.66;109731;1260;22778;-80
2022/08/29 22:57:20;;;;;;;;;;;;;;;;;;;;;
